Latest Weather Observations for Mackay Airport

IDQ60801

Issued at 2:31 pm EST Monday 30 May 2016 (issued every 30 minutes, with the page automatically refreshed every 10 minutes)

About weather observations | Map of weather stations | Latest weather observations for QLD | Other Formats
Station Details ID: 033045 Name: MACKAY AERO Lat: -21.17 Lon: 149.18 Height: 4.7 m
Data from the previous 72 hours. | See also: Recent months at Mackay Airport
Date/Time
EST
Temp
°C
App
Temp
°C
Dew
Point
Rel
Hum
%
Delta-T
°C
Wind Press
QNH
hPa
Press
MSL
hPa
Rain
since 9 am
mm
Dir
 
Spd
km/h
Gust
km/h
Spd
kts
Gust
kts
30/02:30pm 24.9 24.5 20.2 75 3.0 ESE 22 30 12 16 1018.4 1018.4 0.0
30/02:00pm 25.4 24.8 20.4 74 3.3 ESE 24 30 13 16 1018.5 1018.5 0.0
30/01:30pm 25.8 24.9 20.6 73 3.4 ESE 26 30 14 16 1018.7 1018.7 0.0
30/01:00pm 25.9 25.0 20.7 73 3.4 SE 26 32 14 17 1019.0 1019.0 0.0
30/12:30pm 25.7 25.1 20.5 73 3.4 SE 24 30 13 16 1019.6 1019.6 0.0
30/12:00pm 26.3 26.0 20.4 70 3.9 SE 22 26 12 14 1020.0 1020.0 0.0
30/11:30am 25.7 25.6 20.7 74 3.3 SE 22 28 12 15 1020.3 1020.3 0.0
30/11:00am 25.6 25.0 20.4 73 3.4 SE 24 28 13 15 1020.7 1020.7 0.0
30/10:30am 26.0 26.3 20.8 73 3.4 SE 20 26 11 14 1020.8 1020.8 0.0
30/10:00am 25.3 25.6 20.5 75 3.1 SE 19 24 10 13 1020.8 1020.8 0.0
30/09:30am 24.7 25.3 20.2 76 2.9 SE 17 20 9 11 1020.7 1020.7 0.0
30/09:00am 23.7 24.9 20.0 80 2.4 S 13 17 7 9 1020.7 1020.7 0.0
30/08:30am 22.4 24.1 20.1 87 1.5 S 11 17 6 9 1020.5 1020.5 0.0
30/08:00am 20.3 22.1 19.6 96 0.4 SW 9 11 5 6 1020.2 1020.2 0.0
30/07:30am 18.2 19.2 17.7 97 0.3 WSW 9 9 5 5 1019.9 1019.9 0.0
30/07:00am 17.7 18.5 17.2 97 0.3 WSW 9 11 5 6 1019.4 1019.4 0.0
30/06:30am 18.0 19.3 17.5 97 0.3 WSW 7 9 4 5 1019.2 1019.2 0.0
30/06:00am 18.0 19.3 17.5 97 0.3 SW 7 11 4 6 1019.0 1019.0 0.0
30/05:30am 17.5 17.8 17.0 97 0.3 WSW 11 13 6 7 1018.6 1018.6 0.0
30/05:00am 17.5 18.2 17.0 97 0.3 WSW 9 11 5 6 1018.6 1018.6 0.0
30/04:30am 17.9 18.7 17.4 97 0.3 WSW 9 11 5 6 1018.5 1018.5 0.0
30/04:00am 18.1 19.0 17.6 97 0.3 WSW 9 13 5 7 1018.3 1018.3 0.0
30/03:30am 18.3 19.3 17.8 97 0.3 WSW 9 9 5 5 1018.3 1018.3 0.0
30/03:00am 18.6 19.7 18.1 97 0.3 WSW 9 13 5 7 1018.3 1018.3 0.0
30/02:30am 18.6 19.7 18.1 97 0.3 WSW 9 11 5 6 1018.4 1018.4 0.0
30/02:00am 19.0 20.2 18.3 96 0.4 WSW 9 11 5 6 1018.6 1018.6 0.0
30/01:30am 18.7 19.5 18.2 97 0.3 SW 11 13 6 7 1018.6 1018.6 0.0
30/01:00am 18.9 20.0 18.1 95 0.5 SW 9 11 5 6 1018.7 1018.7 0.0
30/12:30am 19.2 20.8 18.2 94 0.6 SW 7 11 4 6 1018.7 1018.7 0.0
30/12:00am 19.7 20.9 18.2 91 0.9 SW 9 11 5 6 1018.9 1018.9 0.0
 
Date/Time
EST
Temp
°C
App
Temp
°C
Dew
Point
Rel
Hum
%
Delta-T
°C
Wind Press
QNH
hPa
Press
MSL
hPa
Rain
since 9 am
mm
Dir
 
Spd
km/h
Gust
km/h
Spd
kts
Gust
kts
29/11:30pm 19.9 20.4 18.4 91 0.9 SW 13 15 7 8 1019.0 1019.0 0.0
29/11:00pm 20.0 21.0 18.7 92 0.8 SW 11 13 6 7 1019.1 1019.1 0.0
29/10:30pm 19.9 21.3 18.7 93 0.7 SW 9 13 5 7 1019.1 1019.1 0.0
29/10:00pm 19.8 21.0 18.3 91 0.9 SSW 9 11 5 6 1019.1 1019.1 0.0
29/09:30pm 20.1 21.3 18.2 89 1.2 SSW 9 11 5 6 1019.1 1019.1 0.0
29/09:00pm 20.9 21.5 18.7 87 1.4 SSW 13 17 7 9 1019.2 1019.2 0.0
29/08:30pm 20.8 21.7 18.4 86 1.5 SSW 11 17 6 9 1019.0 1019.0 0.0
29/08:00pm 22.0 23.1 18.8 82 2.0 ESE 11 17 6 9 1018.6 1018.6 0.0
29/07:30pm 23.0 23.6 19.4 80 2.3 ESE 15 20 8 11 1018.3 1018.3 0.0
29/07:00pm 22.8 23.0 19.4 81 2.2 SE 17 20 9 11 1018.1 1018.1 0.0
29/06:30pm 22.8 22.5 19.2 80 2.3 SE 19 24 10 13 1017.8 1017.8 0.0
29/06:00pm 22.9 22.2 18.7 77 2.6 SE 20 26 11 14 1017.5 1017.5 0.0
29/05:30pm 23.0 22.2 18.5 76 2.8 SE 20 24 11 13 1017.4 1017.4 0.0
29/05:00pm 23.3 21.9 18.0 72 3.3 SE 22 28 12 15 1017.1 1017.1 0.0
29/04:30pm 23.7 22.1 17.4 68 3.9 SE 22 28 12 15 1016.8 1016.8 0.0
29/04:00pm 24.4 22.5 17.6 66 4.2 SE 24 30 13 16 1016.6 1016.6 0.0
29/03:30pm 24.3 22.1 16.8 63 4.6 SE 24 28 13 15 1016.2 1016.2 0.0
29/03:00pm 24.8 22.8 16.5 60 5.1 SE 22 30 12 16 1016.1 1016.1 0.0
29/02:30pm 25.3 22.8 16.2 57 5.6 SE 24 30 13 16 1016.1 1016.1 0.0
29/02:00pm 25.1 21.9 14.3 51 6.4 SE 24 30 13 16 1016.2 1016.2 0.0
29/01:30pm 25.0 21.4 13.2 48 6.9 SE 24 30 13 16 1016.3 1016.3 0.0
29/01:00pm 25.5 21.8 12.7 45 7.4 ESE 24 32 13 17 1016.6 1016.6 0.0
29/12:30pm 25.7 22.3 12.5 44 7.6 ESE 22 28 12 15 1016.9 1016.9 0.0
29/12:00pm 26.0 22.4 11.7 41 8.1 SE 22 28 12 15 1017.2 1017.2 0.0
29/11:30am 25.6 22.7 11.0 40 8.2 ESE 17 20 9 11 1017.7 1017.7 0.0
29/11:00am 25.4 21.9 8.8 35 9.0 SE 17 20 9 11 1018.0 1018.0 0.0
29/10:30am 24.6 21.8 8.5 36 8.6 SSE 13 20 7 11 1018.6 1018.6 0.0
29/10:00am 24.1 20.5 8.5 37 8.3 SSE 17 22 9 12 1018.8 1018.8 0.0
29/09:30am 23.2 19.4 8.9 40 7.7 S 19 22 10 12 1019.0 1019.0 0.0
29/09:00am 21.6 20.5 13.2 59 4.8 S 11 15 6 8 1018.8 1018.8 0.0
29/08:30am 20.2 19.8 14.1 68 3.5 S 9 13 5 7 1018.7 1018.7 0.0
29/08:00am 18.5 18.8 15.9 85 1.5 ENE 9 9 5 5 1018.3 1018.3 0.0
29/07:30am 16.6 17.1 15.6 94 0.6 ENE 7 9 4 5 1017.9 1017.9 0.0
29/07:00am 15.7 15.7 15.2 97 0.3 ENE 9 11 5 6 1017.5 1017.5 0.0
29/06:30am 15.0 14.4 14.5 97 0.3 ENE 11 13 6 7 1017.1 1017.1 0.0
29/06:00am 15.0 15.1 14.5 97 0.3 ENE 7 11 4 6 1016.4 1016.4 0.0
29/05:30am 16.0 16.1 15.5 97 0.3 ENE 9 9 5 5 1016.2 1016.2 0.0
29/05:00am 15.5 15.0 15.0 97 0.3 ENE 11 13 6 7 1015.9 1015.9 0.0
29/04:30am 15.7 14.9 15.2 97 0.3 ENE 13 15 7 8 1015.8 1015.8 0.0
29/04:00am 15.9 15.6 15.4 97 0.3 ENE 11 13 6 7 1015.5 1015.5 0.0
29/03:30am 16.7 17.4 16.2 97 0.3 ENE 7 9 4 5 1015.3 1015.3 0.0
29/03:00am 16.5 16.8 16.0 97 0.3 ENE 9 11 5 6 1015.2 1015.2 0.0
29/02:30am 16.8 16.8 16.3 97 0.3 ENE 11 13 6 7 1015.2 1015.2 0.0
29/02:00am 17.3 17.1 16.8 97 0.3 ENE 13 15 7 8 1015.5 1015.5 0.0
29/01:30am 17.3 18.3 16.8 97 0.3 ENE 7 9 4 5 1015.5 1015.5 0.0
29/01:00am 18.2 19.7 17.7 97 0.3 ENE 6 9 3 5 1015.6 1015.6 0.0
29/12:30am 17.9 19.1 17.4 97 0.3 ENE 7 9 4 5 1015.7 1015.7 0.0
29/12:00am 18.4 20.0 17.9 97 0.3 ENE 6 7 3 4 1015.6 1015.6 0.0
 
Date/Time
EST
Temp
°C
App
Temp
°C
Dew
Point
Rel
Hum
%
Delta-T
°C
Wind Press
QNH
hPa
Press
MSL
hPa
Rain
since 9 am
mm
Dir
 
Spd
km/h
Gust
km/h
Spd
kts
Gust
kts
28/11:30pm 18.7 20.3 18.2 97 0.3 ENE 7 9 4 5 1015.8 1015.8 0.0
28/11:00pm 18.4 19.5 17.9 97 0.3 ENE 9 11 5 6 1015.9 1015.9 0.0
28/10:30pm 18.9 21.6 17.7 93 0.7 CALM 0 0 0 0 1015.9 1015.9 0.0
28/10:00pm 19.5 21.3 18.3 93 0.7 ENE 6 7 3 4 1015.9 1015.9 0.0
28/09:30pm 19.4 21.1 18.1 92 0.8 ENE 6 7 3 4 1015.8 1015.8 0.0
28/09:00pm 20.1 21.8 18.4 90 1.1 ENE 7 7 4 4 1015.6 1015.6 0.0
28/08:30pm 20.5 22.0 18.8 90 1.1 ENE 9 11 5 6 1015.4 1015.4 0.0
28/08:00pm 21.2 24.2 18.4 84 1.7 CALM 0 0 0 0 1015.3 1015.3 0.0
28/07:30pm 21.9 25.1 18.9 83 1.9 CALM 0 0 0 0 1015.1 1015.1 0.0
28/07:00pm 22.0 25.0 18.4 80 2.3 CALM 0 0 0 0 1014.8 1014.8 0.0
28/06:30pm 23.0 24.7 18.1 74 3.1 ENE 6 7 3 4 1014.3 1014.3 0.0
28/06:00pm 23.8 25.5 18.4 72 3.4 NE 7 11 4 6 1014.0 1014.0 0.0
28/05:30pm 24.3 25.2 17.5 66 4.2 NE 9 13 5 7 1013.7 1013.7 0.0
28/05:00pm 25.0 25.0 18.0 65 4.4 ENE 15 19 8 10 1013.5 1013.5 0.0
28/04:30pm 25.9 26.0 17.5 59 5.3 NNE 13 17 7 9 1013.3 1013.3 0.0
28/04:00pm 26.1 25.5 17.5 59 5.4 NE 17 22 9 12 1013.1 1013.1 0.0
28/03:30pm 26.6 25.7 17.7 58 5.6 ENE 19 24 10 13 1012.9 1012.9 0.0
28/03:00pm 26.9 25.4 16.2 52 6.6 NE 19 24 10 13 1012.9 1012.9 0.0
28/02:30pm 27.1 25.2 15.1 47 7.3 NE 19 24 10 13 1013.1 1013.1 0.0
28/02:00pm 26.9 25.1 15.6 50 6.9 ENE 19 22 10 12 1013.2 1013.2 0.0
28/01:30pm 27.0 24.9 14.7 47 7.4 ENE 19 24 10 13 1013.3 1013.3 0.0
28/01:00pm 26.6 24.2 14.4 47 7.3 ENE 20 24 11 13 1013.5 1013.5 0.0
28/12:30pm 27.3 25.7 15.0 47 7.4 ENE 17 20 9 11 1013.8 1013.8 0.0
28/12:00pm 27.0 26.2 15.1 48 7.2 ENE 13 17 7 9 1014.2 1014.2 0.0
28/11:30am 26.8 25.7 14.2 46 7.5 ENE 13 19 7 10 1014.6 1014.6 0.0
28/11:00am 26.7 25.7 14.5 47 7.3 E 13 17 7 9 1015.0 1015.0 0.0
28/10:30am 26.4 25.9 13.9 46 7.4 E 9 15 5 8 1015.4 1015.4 0.0
28/10:00am 26.0 25.6 14.1 47 7.1 ESE 9 13 5 7 1015.9 1015.9 0.0
28/09:30am 25.5 25.7 14.3 50 6.7 SSW 6 9 3 5 1016.1 1016.1 0.0
28/09:00am 24.6 24.9 14.4 53 6.0 S 6 9 3 5 1015.9 1015.9 0.0
28/08:30am 24.2 26.1 15.7 59 5.1 CALM 0 0 0 0 1015.8 1015.8 0.0
28/08:00am 22.9 24.5 15.0 61 4.7 CALM 0 0 0 0 1015.5 1015.5 0.0
28/07:30am 20.3 22.7 16.9 81 2.1 CALM 0 0 0 0 1015.2 1015.2 0.0
28/07:00am 19.0 20.3 17.0 88 1.2 S 6 7 3 4 1014.8 1014.8 0.0
28/06:30am 18.2 19.1 16.7 91 0.9 S 7 9 4 5 1014.6 1014.6 0.0
28/06:00am 18.1 19.1 16.8 92 0.8 S 7 9 4 5 1014.4 1014.4 0.0
28/05:30am 17.8 19.0 17.3 97 0.3 S 7 9 4 5 1014.1 1014.1 0.0
28/05:00am 18.5 19.1 16.8 90 1.0 S 9 9 5 5 1013.8 1013.8 0.0
28/04:30am 18.4 19.2 16.4 88 1.2 S 7 9 4 5 1013.6 1013.6 0.0
28/04:00am 19.4 20.1 16.2 82 1.9 S 7 9 4 5 1013.4 1013.4 0.0
28/03:30am 19.5 20.4 16.7 84 1.7 S 7 9 4 5 1013.2 1013.2 0.0
28/03:00am 20.4 21.4 17.8 85 1.6 SSW 9 11 5 6 1013.1 1013.1 0.0
28/02:30am 19.6 20.1 18.4 93 0.7 SW 13 15 7 8 1013.0 1013.0 0.0
28/02:00am 21.6 22.7 19.7 89 1.2 S 13 15 7 8 1012.8 1012.8 0.0
28/01:30am 21.1 23.5 20.8 98 0.2 SSW 9 11 5 6 1012.9 1012.9 0.0
28/01:00am 20.9 23.8 20.6 98 0.2 S 6 7 3 4 1012.7 1012.7 0.0
28/12:30am 21.1 24.1 20.8 98 0.2 S 6 9 3 5 1012.3 1012.3 0.0
28/12:00am 22.0 25.8 21.7 98 0.2 S 4 9 2 5 1012.2 1012.2 0.0
 
Date/Time
EST
Temp
°C
App
Temp
°C
Dew
Point
Rel
Hum
%
Delta-T
°C
Wind Press
QNH
hPa
Press
MSL
hPa
Rain
since 9 am
mm
Dir
 
Spd
km/h
Gust
km/h
Spd
kts
Gust
kts
27/11:30pm 23.1 26.2 22.8 98 0.2 WSW 11 24 6 13 1012.2 1012.2 0.0
27/11:00pm 23.4 26.6 23.1 98 0.2 NW 11 15 6 8 1011.5 1011.5 0.0
27/10:30pm 23.5 27.1 23.0 97 0.3 WNW 9 13 5 7 1011.7 1011.7 0.0
27/10:00pm 23.6 27.1 22.9 96 0.5 NW 9 11 5 6 1011.6 1011.6 0.0
27/09:30pm 23.5 26.8 22.5 94 0.7 NW 9 13 5 7 1011.5 1011.5 0.0
27/09:00pm 23.8 26.7 22.4 92 0.9 NNW 11 15 6 8 1011.4 1011.4 0.0
27/08:30pm 24.9 27.8 23.1 90 1.2 NW 13 19 7 10 1011.4 1011.4 0.0
27/08:00pm 24.7 28.3 23.8 95 0.6 NNW 11 15 6 8 1011.2 1011.2 0.0
27/07:30pm 25.0 28.3 24.5 97 0.3 NNW 15 19 8 10 1011.1 1011.1 0.0
27/07:00pm 25.3 27.7 24.6 96 0.5 NNW 20 26 11 14 1010.5 1010.5 0.0
27/06:30pm 25.5 27.5 24.5 94 0.7 NNW 22 30 12 16 1010.2 1010.2 0.0
27/06:00pm 25.6 26.7 24.4 93 0.8 N 26 33 14 18 1009.8 1009.8 0.0
27/05:30pm 26.0 27.7 24.0 89 1.4 NNW 22 30 12 16 1009.7 1009.7 0.0
27/05:00pm 26.8 27.5 23.7 83 2.1 NNW 26 35 14 19 1009.3 1009.3 0.0
27/04:30pm 27.8 28.2 23.2 76 3.1 N 26 37 14 20 1009.1 1009.1 0.0
27/04:00pm 28.8 28.6 22.8 70 4.1 NNW 28 37 15 20 1008.9 1008.9 0.0
27/03:30pm 29.6 29.8 22.8 67 4.6 N 26 33 14 18 1008.7 1008.7 0.0
27/03:00pm 30.4 30.5 23.3 66 4.9 NNW 28 35 15 19 1008.7 1008.7 0.0

Other Formats:

Comma delimited format used in spreadsheet applications
http://www.bom.gov.au/fwo/IDQ60801/IDQ60801.95367.axf

JavaScript Object Notation format (JSON) in row-major order
http://www.bom.gov.au/fwo/IDQ60801/IDQ60801.95367.json